createdAt,value
2023-03-23T15:58:35.307Z,100249.28
2023-03-23T16:01:05.941Z,100250.34
2023-03-23T16:04:00.239Z,100259.72
2023-03-23T16:06:30.024Z,100266.03
2023-03-23T16:08:57.270Z,100272.97
2023-03-23T16:11:26.410Z,100278.94
2023-03-23T16:13:52.975Z,100283.06
2023-03-23T16:16:25.032Z,100273.44
2023-03-23T16:18:51.621Z,100269.06
2023-03-23T16:21:18.125Z,100263.47
2023-03-23T16:23:46.492Z,100264.78
2023-03-23T16:26:14.747Z,100261.75
2023-03-23T16:28:42.448Z,100266.16
2023-03-23T16:31:09.173Z,100275.28
2023-03-23T16:33:35.875Z,100280.56
2023-03-23T16:36:02.878Z,100279.19
2023-03-23T16:38:29.490Z,100288.34
2023-03-23T16:40:56.229Z,100291.13
2023-03-23T16:43:22.839Z,100297.38
2023-03-23T16:45:49.771Z,100299.84
2023-03-23T16:48:17.103Z,100308.63
2023-03-23T16:50:44.906Z,100298.19
2023-03-23T16:53:11.963Z,100288.34
2023-03-23T16:55:39.395Z,100273.50
2023-03-23T16:58:16.184Z,100269.97
2023-03-23T17:00:44.676Z,100263.16
2023-03-23T17:03:11.514Z,100277.75
2023-03-23T17:05:38.118Z,100279.16
2023-03-23T17:08:05.862Z,100262.03
2023-03-23T17:10:33.315Z,100270.00
2023-03-23T17:13:00.166Z,100265.31
2023-03-23T17:15:26.787Z,100266.72
2023-03-23T17:17:54.823Z,100261.22
2023-03-23T17:20:22.173Z,100265.91
2023-03-23T17:22:49.128Z,100257.13
2023-03-23T17:25:15.744Z,100254.09
2023-03-23T17:27:42.733Z,100252.16
2023-03-23T17:30:10.904Z,100256.84
2023-03-23T17:32:38.154Z,100254.41
2023-03-23T17:35:06.453Z,100249.72
2023-03-23T17:37:33.375Z,100239.56
2023-03-23T17:40:00.144Z,100249.47
2023-03-23T17:42:27.022Z,100248.94
2023-03-23T17:44:53.532Z,100238.22
2023-03-23T17:47:20.084Z,100239.00
2023-03-23T17:49:46.688Z,100240.44
2023-03-23T17:52:13.314Z,100252.84
2023-03-23T17:54:39.803Z,100255.03
2023-03-23T17:57:06.389Z,100261.38
2023-03-23T17:59:32.985Z,100249.84
2023-03-23T18:01:59.701Z,100246.25
2023-03-23T18:04:29.619Z,100248.78
2023-03-23T18:06:57.550Z,100239.69
2023-03-23T18:09:25.497Z,100233.59
2023-03-23T18:11:53.047Z,100221.53
2023-03-23T18:14:20.248Z,100224.84
2023-03-23T18:16:47.205Z,100219.31
2023-03-23T18:19:13.957Z,100213.81
2023-03-23T18:21:40.806Z,100210.25
2023-03-23T18:24:08.028Z,100207.78
2023-03-23T18:26:35.042Z,100205.59
2023-03-23T18:29:01.644Z,100207.81
2023-03-23T18:31:29.415Z,100203.13
2023-03-23T18:33:56.240Z,100205.00
2023-03-23T18:36:25.787Z,100200.69
2023-03-23T18:38:56.281Z,100200.09
2023-03-23T18:41:24.003Z,100195.69
2023-03-23T18:43:50.725Z,100194.59
2023-03-23T18:46:17.582Z,100179.72
2023-03-23T18:48:44.156Z,100183.59
2023-03-23T18:51:11.300Z,100176.44
2023-03-23T18:53:37.810Z,100175.31
2023-03-23T18:56:10.461Z,100176.66
2023-03-23T18:58:37.433Z,100182.47
2023-03-23T19:01:07.161Z,100183.59
2023-03-23T19:03:35.087Z,100173.97
2023-03-23T19:06:02.757Z,100175.59
2023-03-23T19:08:29.716Z,100172.84
2023-03-23T19:10:59.873Z,100165.41
2023-03-23T19:13:28.096Z,100163.78
2023-03-23T19:15:54.752Z,100163.78
2023-03-23T19:18:21.590Z,100155.50
2023-03-23T19:21:12.570Z,100158.84
2023-03-23T19:23:37.265Z,100154.44
2023-03-23T19:26:03.841Z,100155.59
2023-03-23T19:29:18.838Z,100152.00
2023-03-23T19:31:19.684Z,100146.78
2023-03-23T19:33:46.256Z,100145.13
2023-03-23T19:36:14.101Z,100139.38
2023-03-23T19:38:40.796Z,100133.09
2023-03-23T19:41:07.916Z,100141.34
2023-03-23T19:43:36.187Z,100131.72
2023-03-23T19:46:04.374Z,100135.28
2023-03-23T19:48:31.077Z,100132.81
2023-03-23T19:50:57.626Z,100129.53
2023-03-23T19:53:24.459Z,100127.06
2023-03-23T19:55:51.594Z,100126.00
2023-03-23T19:58:18.653Z,100118.88
2023-03-23T20:00:45.957Z,100118.88
2023-03-23T20:03:12.636Z,100131.25
2023-03-23T20:05:40.690Z,100127.16
2023-03-23T20:08:09.131Z,100134.59
2023-03-23T20:10:36.380Z,100128.03
2023-03-23T20:13:04.431Z,100123.66
2023-03-23T20:15:31.532Z,100113.22
2023-03-23T20:17:58.412Z,100111.59
2023-03-23T20:20:25.833Z,100112.97
2023-03-23T20:22:54.488Z,100112.44
2023-03-23T20:25:22.132Z,100100.09
2023-03-23T20:27:48.749Z,100094.59
2023-03-23T20:30:15.492Z,100092.13
2023-03-23T20:32:42.183Z,100094.88
2023-03-23T20:35:10.661Z,100088.84
2023-03-23T20:37:38.659Z,100094.34
2023-03-23T20:40:08.176Z,100090.53
2023-03-23T20:42:35.481Z,100082.81
2023-03-23T20:45:02.602Z,100084.47
2023-03-23T20:47:29.280Z,100083.72
2023-03-23T20:49:55.964Z,100082.06
2023-03-23T20:52:25.850Z,100068.09
2023-03-23T20:54:53.348Z,100073.84
2023-03-23T20:57:20.684Z,100070.84
2023-03-23T20:59:47.226Z,100061.22
2023-03-23T21:02:16.121Z,100069.19
2023-03-23T21:04:45.105Z,100068.34
2023-03-23T21:07:12.877Z,100060.97
2023-03-23T21:09:40.835Z,100065.94
2023-03-23T21:12:09.355Z,100049.44
2023-03-23T21:14:38.510Z,100048.91
2023-03-23T21:17:06.443Z,100044.81
2023-03-23T21:19:33.758Z,100035.72
2023-03-23T21:22:00.912Z,100043.97
2023-03-23T21:24:29.540Z,100032.75
2023-03-23T21:26:58.931Z,100043.72
2023-03-23T21:29:25.531Z,100030.56
2023-03-23T21:32:01.457Z,100029.19
2023-03-23T21:34:33.715Z,100031.84
2023-03-23T21:37:00.238Z,100034.69
2023-03-23T21:39:27.638Z,100032.53
2023-03-23T21:41:54.545Z,100027.88
2023-03-23T21:44:21.469Z,100025.44
2023-03-23T21:46:48.081Z,100028.44
2023-03-23T21:49:14.734Z,100026.00
2023-03-23T21:51:42.713Z,100026.03
2023-03-23T21:54:10.622Z,100018.38
2023-03-23T21:56:37.650Z,100019.19
2023-03-23T21:59:04.745Z,100014.25
2023-03-23T22:01:31.523Z,100010.69
2023-03-23T22:03:58.277Z,100011.50
2023-03-23T22:06:30.859Z,99999.44
2023-03-23T22:08:57.545Z,100003.59
2023-03-23T22:11:27.096Z,100004.16
2023-03-23T22:13:55.476Z,99999.50
2023-03-23T22:16:23.128Z,99989.09
2023-03-23T22:18:52.147Z,99996.78
2023-03-23T22:21:21.892Z,99980.03
2023-03-23T22:23:49.163Z,99974.56
2023-03-23T22:26:16.546Z,99967.41
2023-03-23T22:28:44.054Z,99975.97
2023-03-23T22:31:18.603Z,99965.25
2023-03-23T22:33:46.624Z,99961.44
2023-03-23T22:36:13.561Z,99948.78
2023-03-23T22:38:42.559Z,99948.53
2023-03-23T22:41:14.269Z,99945.56
2023-03-23T22:43:40.849Z,99946.09
2023-03-23T22:46:07.504Z,99934.06
2023-03-23T22:48:34.036Z,99931.81
2023-03-23T22:51:00.810Z,99937.31
2023-03-23T22:53:27.340Z,99934.31
2023-03-23T22:55:55.880Z,99919.78
2023-03-23T22:58:23.401Z,99924.72
2023-03-23T23:00:55.730Z,99917.84
2023-03-23T23:03:23.273Z,99909.34
2023-03-23T23:05:51.323Z,99916.47
2023-03-23T23:08:18.184Z,99903.88
2023-03-23T23:10:48.436Z,99902.19
2023-03-23T23:13:15.926Z,99907.69
2023-03-23T23:15:45.728Z,99908.50
2023-03-23T23:18:12.354Z,99896.47
2023-03-23T23:20:40.966Z,99882.75
2023-03-23T23:23:07.593Z,99885.81
2023-03-23T23:25:34.595Z,99885.25
2023-03-23T23:28:02.586Z,99889.91
2023-03-23T23:30:30.167Z,99878.09
2023-03-23T23:32:58.745Z,99879.75
2023-03-23T23:35:26.142Z,99877.00
2023-03-23T23:37:52.704Z,99864.09
2023-03-23T23:40:20.025Z,99861.13
2023-03-23T23:42:49.943Z,99859.47
2023-03-23T23:45:17.223Z,99854.53
2023-03-23T23:47:43.777Z,99851.22
2023-03-23T23:50:12.688Z,99849.84
2023-03-23T23:52:40.665Z,99851.47
2023-03-23T23:55:09.339Z,99837.47
2023-03-23T23:57:36.101Z,99843.50
